Newmarket — C6QO8 — position and weather

sailwx.info

Track history (hours):
 
Tides and Currents Weather Stations Pressure Air Temp Water Temp Dewpoint Dewpoint Depression Visibility Wind Speed Wind Dir Waves Ship Positions

Newmarket

Last reported at 2018-Jun-09 03:37 UTC. Time now 2018-Jun-18 05:30 UTC.
Position N 29°05' W 094°26'.
Warning: this ship's position is 9 days out of date.

Length 117 m; draft 7.1 m.

Type: Tanker. MMSI: 308026000.

Date/timePositionNaut miles runAvg speedWind from/ knotsBaromVisibWave heightAir tempDewpointWater temp
2018-Jun-09 03:37N 29°05' W 094°26'112.5
2018-Jun-09 03:31N 29°06' W 094°27'912.5
2018-Jun-09 02:45N 29°14' W 094°33'512.7
2018-Jun-09 02:24N 29°17' W 094°37'411.4
2018-Jun-09 02:00N 29°20' W 094°41'612.9
2018-Jun-09 01:30N 29°22' W 094°48'713.1
2018-Jun-09 00:58N 29°28' W 094°51'612.0
2018-Jun-09 00:28N 29°33' W 094°55'511.3
2018-Jun-09 00:00N 29°38' W 094°58'5 8.8
2018-Jun-08 23:30N 29°42' W 095°00'1 0.0
2018-Jun-07 14:25N 29°42' W 095°01'410.3
2018-Jun-07 14:00N 29°39' W 094°58'612.0
2018-Jun-07 13:30N 29°33' W 094°55'813.3
2018-Jun-07 12:56N 29°27' W 094°51'613.0
2018-Jun-07 12:30N 29°22' W 094°48'5 9.6
2018-Jun-07 12:00N 29°21' W 094°42'10 1.0
2018-Jun-07 02:19N 29°18' W 094°32'0 0.0
2018-Jun-07 01:32N 29°18' W 094°32'0 0.0
2018-Jun-07 01:21N 29°18' W 094°32'0 0.0
2018-Jun-07 00:52N 29°18' W 094°32'0 0.0
2018-Jun-07 00:28N 29°18' W 094°32'0 0.0
2018-Jun-06 23:02N 29°18' W 094°32'0 0.0
2018-Jun-06 21:12N 29°18' W 094°32'0 0.0
2018-Jun-06 13:37N 29°18' W 094°32'0 0.1
2018-Jun-06 13:30N 29°18' W 094°32'0 0.0
2018-Jun-06 01:48N 29°18' W 094°32'0 0.0
2018-Jun-06 01:27N 29°18' W 094°32'0 0.0
2018-Jun-06 01:00N 29°18' W 094°32'0 0.0
2018-Jun-06 00:27N 29°18' W 094°32'0 0.0
2018-Jun-05 23:57N 29°18' W 094°32'0 0.0
2018-Jun-05 23:24N 29°18' W 094°32'0 0.0
2018-Jun-05 23:00N 29°18' W 094°32'0 0.0
2018-Jun-05 22:18N 29°18' W 094°32'0 0.0
2018-Jun-05 07:40N 29°18' W 094°32'0 0.0
2018-Jun-05 07:11N 29°18' W 094°32'0 0.0
2018-Jun-05 07:00N 29°18' W 094°32'0 0.0
2018-Jun-05 06:26N 29°18' W 094°32'0 0.0
2018-Jun-05 05:57N 29°18' W 094°32'1 2.0
2018-Jun-05 05:27N 29°17' W 094°32'4 8.1
2018-Jun-05 04:59N 29°14' W 094°29'912.4
2018-Jun-05 04:18N 29°09' W 094°21'413.3
2018-Jun-05 04:00N 29°07' W 094°18'813.2
2018-Jun-05 03:24N 29°02' W 094°11'813.4
2018-Jun-05 02:49N 28°58' W 094°03'513.5
2018-Jun-05 02:25N 28°55' W 093°58'613.7
2018-Jun-05 01:56N 28°51' W 093°52'  
Track history (hours):
 
Tides and Currents Weather Stations Pressure Air Temp Water Temp Dewpoint Dewpoint Depression Visibility Wind Speed Wind Dir Waves Ship Positions

Newmarket

Last reported at 2018-Jun-09 03:37 UTC. Time now 2018-Jun-18 05:30 UTC.
Position N 29°05' W 094°26'.
Warning: this ship's position is 9 days out of date.

Length 117 m; draft 7.1 m.

Type: Tanker. MMSI: 308026000.

Date/timePositionNaut miles runAvg speedWind from/ knotsBaromVisibWave heightAir tempDewpointWater temp
2018-Jun-09 03:37N 29°05' W 094°26'112.5
2018-Jun-09 03:31N 29°06' W 094°27'912.5
2018-Jun-09 02:45N 29°14' W 094°33'512.7
2018-Jun-09 02:24N 29°17' W 094°37'411.4
2018-Jun-09 02:00N 29°20' W 094°41'612.9
2018-Jun-09 01:30N 29°22' W 094°48'713.1
2018-Jun-09 00:58N 29°28' W 094°51'612.0
2018-Jun-09 00:28N 29°33' W 094°55'511.3
2018-Jun-09 00:00N 29°38' W 094°58'5 8.8
2018-Jun-08 23:30N 29°42' W 095°00'1 0.0
2018-Jun-07 14:25N 29°42' W 095°01'410.3
2018-Jun-07 14:00N 29°39' W 094°58'612.0
2018-Jun-07 13:30N 29°33' W 094°55'813.3
2018-Jun-07 12:56N 29°27' W 094°51'613.0
2018-Jun-07 12:30N 29°22' W 094°48'5 9.6
2018-Jun-07 12:00N 29°21' W 094°42'10 1.0
2018-Jun-07 02:19N 29°18' W 094°32'0 0.0
2018-Jun-07 01:32N 29°18' W 094°32'0 0.0
2018-Jun-07 01:21N 29°18' W 094°32'0 0.0
2018-Jun-07 00:52N 29°18' W 094°32'0 0.0
2018-Jun-07 00:28N 29°18' W 094°32'0 0.0
2018-Jun-06 23:02N 29°18' W 094°32'0 0.0
2018-Jun-06 21:12N 29°18' W 094°32'0 0.0
2018-Jun-06 13:37N 29°18' W 094°32'0 0.1
2018-Jun-06 13:30N 29°18' W 094°32'0 0.0
2018-Jun-06 01:48N 29°18' W 094°32'0 0.0
2018-Jun-06 01:27N 29°18' W 094°32'0 0.0
2018-Jun-06 01:00N 29°18' W 094°32'0 0.0
2018-Jun-06 00:27N 29°18' W 094°32'0 0.0
2018-Jun-05 23:57N 29°18' W 094°32'0 0.0
2018-Jun-05 23:24N 29°18' W 094°32'0 0.0
2018-Jun-05 23:00N 29°18' W 094°32'0 0.0
2018-Jun-05 22:18N 29°18' W 094°32'0 0.0
2018-Jun-05 07:40N 29°18' W 094°32'0 0.0
2018-Jun-05 07:11N 29°18' W 094°32'0 0.0
2018-Jun-05 07:00N 29°18' W 094°32'0 0.0
2018-Jun-05 06:26N 29°18' W 094°32'0 0.0
2018-Jun-05 05:57N 29°18' W 094°32'1 2.0
2018-Jun-05 05:27N 29°17' W 094°32'4 8.1
2018-Jun-05 04:59N 29°14' W 094°29'912.4
2018-Jun-05 04:18N 29°09' W 094°21'413.3
2018-Jun-05 04:00N 29°07' W 094°18'813.2
2018-Jun-05 03:24N 29°02' W 094°11'813.4
2018-Jun-05 02:49N 28°58' W 094°03'513.5
2018-Jun-05 02:25N 28°55' W 093°58'613.7
2018-Jun-05 01:56N 28°51' W 093°52'  

Dump ship's entire track history